createdAt,value
2023-05-21T00:00:13.057Z,14.27
2023-05-21T00:02:44.174Z,14.24
2023-05-21T00:05:15.653Z,14.20
2023-05-21T00:07:44.706Z,14.15
2023-05-21T00:10:14.215Z,14.04
2023-05-21T00:12:43.484Z,14.08
2023-05-21T00:15:12.892Z,14.07
2023-05-21T00:17:43.620Z,13.91
2023-05-21T00:20:13.605Z,14.00
2023-05-21T00:22:43.914Z,13.88
2023-05-21T00:25:13.403Z,13.89
2023-05-21T00:27:42.393Z,13.80
2023-05-21T00:30:12.070Z,13.70
2023-05-21T00:32:41.250Z,13.71
2023-05-21T00:35:13.371Z,13.64
2023-05-21T00:37:42.573Z,13.55
2023-05-21T00:40:13.014Z,13.57
2023-05-21T00:42:42.347Z,13.63
2023-05-21T00:45:11.679Z,13.56
2023-05-21T00:47:41.860Z,13.54
2023-05-21T00:50:15.094Z,13.53
2023-05-21T00:52:45.914Z,13.53
2023-05-21T00:55:14.989Z,13.59
2023-05-21T00:57:44.082Z,13.43
2023-05-21T01:00:18.529Z,13.39
2023-05-21T01:02:50.798Z,13.47
2023-05-21T01:05:22.131Z,13.44
2023-05-21T01:07:51.424Z,13.24
2023-05-21T01:10:20.465Z,13.22
2023-05-21T01:12:50.832Z,13.44
2023-05-21T01:15:20.092Z,13.37
2023-05-21T01:17:49.894Z,13.26
2023-05-21T01:20:21.367Z,13.19
2023-05-21T01:22:56.237Z,13.20
2023-05-21T01:25:26.770Z,13.11
2023-05-21T01:27:56.286Z,13.20
2023-05-21T01:30:26.664Z,12.97
2023-05-21T01:33:02.031Z,12.94
2023-05-21T01:35:35.388Z,12.87
2023-05-21T01:38:15.582Z,12.99
2023-05-21T01:40:53.418Z,12.91
2023-05-21T01:43:24.992Z,12.96
2023-05-21T01:45:56.533Z,13.03
2023-05-21T01:48:28.567Z,12.92
2023-05-21T01:51:01.533Z,12.88
2023-05-21T01:53:32.065Z,12.81
2023-05-21T01:56:03.015Z,12.67
2023-05-21T01:58:33.446Z,12.65
2023-05-21T02:01:02.896Z,12.63
2023-05-21T02:03:32.594Z,12.73
2023-05-21T02:06:01.708Z,12.64
2023-05-21T02:08:34.852Z,12.71
2023-05-21T02:11:03.876Z,12.57
2023-05-21T02:13:33.095Z,12.39
2023-05-21T02:16:02.441Z,12.56
2023-05-21T02:18:31.426Z,12.51
2023-05-21T02:21:00.693Z,12.44
2023-05-21T02:23:31.076Z,12.64
2023-05-21T02:26:00.322Z,12.48
2023-05-21T02:28:29.869Z,12.56
2023-05-21T02:30:58.813Z,12.63
2023-05-21T02:33:27.840Z,12.29
2023-05-21T02:35:56.813Z,12.43
2023-05-21T02:38:26.101Z,12.59
2023-05-21T02:40:56.980Z,12.58
2023-05-21T02:43:26.403Z,12.54
2023-05-21T02:45:55.571Z,12.71
2023-05-21T02:48:25.028Z,12.52
2023-05-21T02:50:54.717Z,12.68
2023-05-21T02:53:24.054Z,12.80
2023-05-21T02:55:53.306Z,12.67
2023-05-21T02:58:25.317Z,12.66
2023-05-21T03:00:54.890Z,12.77
2023-05-21T03:03:24.170Z,12.63
2023-05-21T03:05:54.234Z,12.66
2023-05-21T03:08:24.832Z,12.48
2023-05-21T03:10:58.580Z,12.73
2023-05-21T03:13:34.614Z,12.66
2023-05-21T03:16:06.180Z,12.77
2023-05-21T03:18:39.239Z,12.41
2023-05-21T03:21:13.479Z,12.46
2023-05-21T03:23:44.218Z,12.53
2023-05-21T03:26:19.189Z,12.90
2023-05-21T03:28:49.973Z,12.75
2023-05-21T03:31:19.958Z,12.73
2023-05-21T03:33:53.897Z,12.60
2023-05-21T03:36:32.492Z,12.65
2023-05-21T03:39:04.657Z,12.62
2023-05-21T03:41:42.664Z,12.84
2023-05-21T03:44:30.324Z,12.81
2023-05-21T03:47:07.699Z,12.80
2023-05-21T03:49:38.460Z,12.94
2023-05-21T03:52:11.008Z,13.02
2023-05-21T03:54:40.246Z,13.18
2023-05-21T03:57:11.488Z,13.27
2023-05-21T03:59:45.333Z,13.26
2023-05-21T04:02:15.169Z,13.18
2023-05-21T04:04:46.995Z,13.10
2023-05-21T04:07:19.295Z,13.30
2023-05-21T04:09:49.418Z,13.16
2023-05-21T04:12:23.236Z,13.21
2023-05-21T04:15:00.066Z,13.02
2023-05-21T04:17:30.477Z,13.20
2023-05-21T04:19:59.944Z,13.44
2023-05-21T04:22:29.459Z,13.17
2023-05-21T04:25:05.644Z,13.28
2023-05-21T04:27:39.114Z,13.51
2023-05-21T04:30:12.377Z,13.54
2023-05-21T04:32:43.517Z,13.38
2023-05-21T04:35:15.363Z,13.57
2023-05-21T04:37:46.042Z,13.81
2023-05-21T04:40:18.563Z,13.88
2023-05-21T04:42:53.509Z,13.94
2023-05-21T04:45:27.231Z,13.63
2023-05-21T04:48:00.559Z,13.92
2023-05-21T04:50:33.987Z,13.68
2023-05-21T04:53:04.546Z,13.72
2023-05-21T04:55:36.634Z,13.62
2023-05-21T04:58:11.912Z,13.83
2023-05-21T05:00:46.367Z,14.09
2023-05-21T05:03:16.411Z,13.85
2023-05-21T05:05:46.640Z,14.07
2023-05-21T05:08:16.397Z,14.10
2023-05-21T05:10:45.922Z,14.01
2023-05-21T05:13:16.063Z,14.17
2023-05-21T05:15:49.607Z,14.27
2023-05-21T05:18:20.049Z,14.37
2023-05-21T05:20:49.288Z,14.66
2023-05-21T05:23:18.947Z,14.53
2023-05-21T05:25:48.645Z,14.81
2023-05-21T05:28:17.890Z,15.08
2023-05-21T05:30:49.136Z,15.06
2023-05-21T05:33:24.455Z,14.92
2023-05-21T05:35:54.040Z,15.46
2023-05-21T05:38:24.444Z,15.46
2023-05-21T05:40:53.935Z,15.60
2023-05-21T05:43:23.700Z,15.32
2023-05-21T05:45:55.136Z,14.69
2023-05-21T05:48:28.090Z,14.71
2023-05-21T05:50:57.492Z,15.03
2023-05-21T05:53:30.020Z,15.55
2023-05-21T05:55:59.907Z,15.94
2023-05-21T05:58:33.612Z,15.85
2023-05-21T06:01:18.875Z,16.15
2023-05-21T06:03:48.060Z,16.39
2023-05-21T06:06:20.686Z,16.25
2023-05-21T06:08:50.235Z,15.34
2023-05-21T06:11:23.617Z,16.70
2023-05-21T06:13:52.954Z,16.98
2023-05-21T06:16:23.668Z,17.20
2023-05-21T06:18:53.137Z,17.16
2023-05-21T06:21:22.343Z,17.35
2023-05-21T06:23:51.540Z,17.75
2023-05-21T06:26:22.081Z,17.67
2023-05-21T06:28:54.458Z,17.27
2023-05-21T06:31:25.467Z,17.18
2023-05-21T06:33:55.027Z,17.25
2023-05-21T06:36:29.902Z,17.76
2023-05-21T06:39:00.087Z,17.61
2023-05-21T06:41:29.638Z,17.77
2023-05-21T06:44:02.899Z,17.88
2023-05-21T06:46:43.190Z,18.13
2023-05-21T06:49:17.447Z,17.61
2023-05-21T06:51:46.530Z,17.27
2023-05-21T06:54:16.895Z,17.49
2023-05-21T06:56:46.445Z,18.08
2023-05-21T06:59:18.645Z,18.28
2023-05-21T07:01:49.580Z,18.45
2023-05-21T07:04:26.665Z,18.45
2023-05-21T07:06:56.110Z,17.92
2023-05-21T07:09:26.520Z,18.12
2023-05-21T07:11:58.964Z,17.80
2023-05-21T07:14:37.171Z,18.84
2023-05-21T07:17:08.021Z,19.06
2023-05-21T07:19:39.193Z,18.18
2023-05-21T07:22:13.212Z,18.20
2023-05-21T07:24:42.397Z,18.86
2023-05-21T07:27:24.793Z,19.19
2023-05-21T07:29:56.519Z,19.33
2023-05-21T07:32:30.145Z,18.06
2023-05-21T07:35:02.778Z,18.44
2023-05-21T07:37:35.223Z,18.46
2023-05-21T07:40:06.658Z,18.25
2023-05-21T07:42:37.498Z,19.16
2023-05-21T07:45:16.398Z,19.13
2023-05-21T07:47:49.724Z,19.14
2023-05-21T07:50:19.409Z,18.66
2023-05-21T07:52:48.996Z,19.07
2023-05-21T07:55:18.521Z,19.03
2023-05-21T07:57:49.632Z,19.07
2023-05-21T08:00:21.357Z,19.21
2023-05-21T08:02:57.561Z,19.40
2023-05-21T08:05:27.830Z,19.15
2023-05-21T08:07:57.502Z,18.86
2023-05-21T08:10:29.876Z,18.59
2023-05-21T08:12:59.367Z,18.89
2023-05-21T08:15:29.651Z,19.25
2023-05-21T08:18:01.225Z,19.61
2023-05-21T08:20:32.707Z,19.24
2023-05-21T08:23:03.405Z,19.95
2023-05-21T08:25:41.037Z,20.18
2023-05-21T08:28:10.239Z,19.33
2023-05-21T08:30:39.553Z,19.39
2023-05-21T08:33:10.091Z,19.76
2023-05-21T08:35:39.526Z,20.08
2023-05-21T08:38:38.062Z,20.29
2023-05-21T08:41:23.094Z,20.35
2023-05-21T08:43:57.744Z,19.93
2023-05-21T08:46:33.108Z,20.36
2023-05-21T08:49:04.795Z,20.89
2023-05-21T08:51:35.125Z,21.59
2023-05-21T08:54:06.391Z,21.01
2023-05-21T08:56:36.853Z,20.12
2023-05-21T08:59:08.609Z,20.84
2023-05-21T09:01:42.499Z,21.38
2023-05-21T09:04:26.349Z,21.69
2023-05-21T09:06:59.423Z,23.06
2023-05-21T09:09:56.557Z,21.74
2023-05-21T09:12:28.896Z,21.81
2023-05-21T09:15:02.580Z,21.87
2023-05-21T09:17:36.347Z,22.22
2023-05-21T09:20:26.718Z,22.13
2023-05-21T09:23:04.652Z,21.33
2023-05-21T09:25:34.793Z,21.51
2023-05-21T09:28:14.104Z,21.85
2023-05-21T09:30:47.058Z,21.15
2023-05-21T09:33:27.320Z,22.52
2023-05-21T09:35:58.807Z,21.87
2023-05-21T09:38:35.300Z,22.27
2023-05-21T09:41:06.791Z,22.52
2023-05-21T09:43:43.185Z,21.92
2023-05-21T09:46:13.315Z,21.84
2023-05-21T09:48:44.744Z,22.51
2023-05-21T09:51:20.938Z,22.07
2023-05-21T09:53:53.704Z,22.30
2023-05-21T09:56:24.887Z,22.91
2023-05-21T09:58:58.566Z,21.98
2023-05-21T10:01:30.491Z,23.17
2023-05-21T10:04:09.531Z,21.91
2023-05-21T10:06:45.384Z,22.88
2023-05-21T10:09:17.161Z,23.19
2023-05-21T10:11:53.329Z,24.14
2023-05-21T10:14:22.788Z,24.63
2023-05-21T10:16:54.405Z,25.51
2023-05-21T10:19:25.889Z,26.53
2023-05-21T10:21:58.180Z,26.23
2023-05-21T10:24:27.956Z,27.68
2023-05-21T10:26:57.777Z,28.44
2023-05-21T10:29:27.513Z,28.19
2023-05-21T10:31:57.617Z,30.42
2023-05-21T10:34:26.979Z,28.22
2023-05-21T10:37:00.721Z,29.60
2023-05-21T10:39:32.345Z,31.15
2023-05-21T10:42:12.961Z,30.64
2023-05-21T10:44:54.969Z,30.00
2023-05-21T10:47:48.229Z,30.56
2023-05-21T10:50:39.391Z,32.53
2023-05-21T10:53:21.287Z,31.19
2023-05-21T10:56:13.803Z,30.90
2023-05-21T10:59:15.430Z,28.92
2023-05-21T11:01:47.233Z,30.15
2023-05-21T11:04:43.345Z,30.09
2023-05-21T11:07:13.441Z,30.50
2023-05-21T11:09:44.338Z,29.97
2023-05-21T11:12:15.334Z,30.02
2023-05-21T11:14:58.259Z,31.39
2023-05-21T11:17:42.186Z,30.00
2023-05-21T11:20:15.343Z,30.53
2023-05-21T11:22:46.933Z,29.86
2023-05-21T11:25:17.579Z,32.74
2023-05-21T11:27:49.186Z,32.43
2023-05-21T11:30:20.462Z,34.57
2023-05-21T11:33:19.896Z,35.15
2023-05-21T11:36:13.694Z,33.80
2023-05-21T11:38:43.200Z,34.28
2023-05-21T11:41:13.783Z,33.96
2023-05-21T11:43:44.979Z,34.06
2023-05-21T11:46:16.622Z,34.06
2023-05-21T11:48:46.494Z,33.53
2023-05-21T11:51:23.942Z,32.75
2023-05-21T11:53:57.317Z,30.81
2023-05-21T11:56:31.909Z,31.84
2023-05-21T11:59:04.372Z,30.94
2023-05-21T12:01:33.888Z,32.67
2023-05-21T12:04:05.770Z,32.08
2023-05-21T12:06:35.549Z,29.57
2023-05-21T12:09:05.997Z,30.20
2023-05-21T12:11:37.791Z,28.51
2023-05-21T12:14:09.847Z,27.58
2023-05-21T12:16:43.281Z,28.95
2023-05-21T12:19:12.982Z,28.60
2023-05-21T12:21:45.497Z,28.54
2023-05-21T12:24:16.682Z,29.88
2023-05-21T12:26:48.120Z,33.13
2023-05-21T12:29:23.595Z,33.36
2023-05-21T12:31:52.901Z,34.69
2023-05-21T12:34:41.444Z,33.11
2023-05-21T12:37:10.966Z,33.71
2023-05-21T12:39:54.488Z,34.80
2023-05-21T12:42:40.834Z,34.85
2023-05-21T12:45:11.856Z,33.62
2023-05-21T12:47:41.416Z,36.07
2023-05-21T12:50:14.251Z,33.54
2023-05-21T12:52:47.309Z,33.68
2023-05-21T12:55:18.522Z,32.59
2023-05-21T12:58:01.205Z,32.11
2023-05-21T13:00:30.110Z,30.94
2023-05-21T13:03:01.220Z,30.58
2023-05-21T13:05:30.668Z,30.43
2023-05-21T13:08:00.113Z,27.53
2023-05-21T13:10:29.477Z,26.37
2023-05-21T13:13:00.613Z,25.47
2023-05-21T13:15:32.758Z,26.14
2023-05-21T13:18:02.412Z,27.25
2023-05-21T13:20:33.463Z,25.52
2023-05-21T13:23:06.722Z,25.25
2023-05-21T13:25:37.251Z,24.93
2023-05-21T13:28:10.419Z,24.83
2023-05-21T13:30:40.223Z,25.08
2023-05-21T13:33:09.747Z,25.00
2023-05-21T13:35:41.170Z,25.10
2023-05-21T13:38:11.146Z,24.50
2023-05-21T13:40:40.992Z,25.42
2023-05-21T13:43:11.933Z,29.91
2023-05-21T13:45:40.996Z,31.11
2023-05-21T13:48:10.545Z,32.76
2023-05-21T13:50:41.592Z,33.68
2023-05-21T13:53:10.968Z,33.98
2023-05-21T13:55:40.143Z,33.60
2023-05-21T13:58:09.561Z,30.15
2023-05-21T14:00:45.373Z,29.13
2023-05-21T14:03:22.841Z,27.39
2023-05-21T14:05:53.996Z,27.57
2023-05-21T14:08:23.861Z,32.89
2023-05-21T14:10:55.836Z,33.83
2023-05-21T14:13:25.228Z,33.36
2023-05-21T14:15:55.855Z,35.12
2023-05-21T14:18:25.518Z,35.13
2023-05-21T14:20:55.252Z,34.75
2023-05-21T14:23:24.483Z,33.68
2023-05-21T14:25:57.256Z,35.00
2023-05-21T14:28:30.433Z,35.45
2023-05-21T14:31:07.707Z,33.80
2023-05-21T14:34:10.991Z,34.83
2023-05-21T14:36:40.527Z,33.34
2023-05-21T14:39:10.730Z,34.96
2023-05-21T14:41:43.310Z,34.32
2023-05-21T14:44:13.172Z,32.97
2023-05-21T14:46:44.133Z,33.39
2023-05-21T14:49:14.687Z,34.88
2023-05-21T14:51:45.052Z,34.38
2023-05-21T14:54:14.177Z,35.07
2023-05-21T14:56:43.741Z,35.21
2023-05-21T14:59:14.490Z,35.09
2023-05-21T15:01:45.479Z,34.15
2023-05-21T15:04:15.748Z,33.62
2023-05-21T15:06:45.022Z,35.48
2023-05-21T15:09:15.293Z,33.90
2023-05-21T15:11:46.196Z,34.22
2023-05-21T15:14:15.533Z,33.29
2023-05-21T15:16:46.325Z,32.76
2023-05-21T15:19:15.933Z,34.38
2023-05-21T15:21:45.339Z,32.53
2023-05-21T15:24:14.978Z,33.76
2023-05-21T15:26:44.846Z,34.94
2023-05-21T15:29:14.045Z,34.18
2023-05-21T15:31:43.483Z,33.35
2023-05-21T15:34:21.192Z,33.76
2023-05-21T15:36:53.556Z,29.45
2023-05-21T15:39:22.798Z,26.75
2023-05-21T15:41:53.829Z,25.51
2023-05-21T15:44:23.527Z,24.93
2023-05-21T15:46:59.344Z,24.55
2023-05-21T15:49:30.003Z,24.75
2023-05-21T15:52:03.150Z,24.40
2023-05-21T15:54:35.606Z,24.09
2023-05-21T15:57:05.209Z,23.76
2023-05-21T15:59:37.819Z,23.82
2023-05-21T16:02:11.055Z,23.79
2023-05-21T16:04:41.558Z,23.39
2023-05-21T16:08:18.636Z,23.25
2023-05-21T16:10:32.405Z,22.46
2023-05-21T16:13:02.380Z,22.55
2023-05-21T16:15:33.637Z,22.13
2023-05-21T16:18:02.729Z,22.27
2023-05-21T16:20:36.261Z,22.44
2023-05-21T16:23:06.823Z,22.16
2023-05-21T16:25:36.678Z,22.37
2023-05-21T16:28:06.577Z,22.01
2023-05-21T16:30:36.032Z,21.88
2023-05-21T16:33:09.335Z,21.64
2023-05-21T16:35:40.216Z,21.68
2023-05-21T16:38:09.508Z,22.04
2023-05-21T16:40:40.668Z,21.97
2023-05-21T16:43:10.267Z,21.73
2023-05-21T16:45:41.749Z,21.65
2023-05-21T16:48:23.975Z,21.59
2023-05-21T16:50:59.008Z,21.60
2023-05-21T16:53:29.744Z,21.54
2023-05-21T16:56:00.615Z,20.72
2023-05-21T16:58:33.356Z,20.13
2023-05-21T17:01:09.066Z,20.60
2023-05-21T17:03:43.206Z,21.12
2023-05-21T17:06:15.326Z,20.77
2023-05-21T17:08:47.670Z,20.80
2023-05-21T17:11:19.910Z,20.78
2023-05-21T17:13:49.350Z,20.72
2023-05-21T17:16:19.362Z,20.19
2023-05-21T17:18:50.559Z,20.44
2023-05-21T17:21:21.961Z,20.35
2023-05-21T17:23:51.173Z,20.27
2023-05-21T17:26:22.002Z,20.22
2023-05-21T17:28:51.363Z,19.98
2023-05-21T17:31:22.172Z,20.10
2023-05-21T17:34:24.728Z,20.00
2023-05-21T17:36:56.507Z,19.87
2023-05-21T17:39:26.552Z,19.69
2023-05-21T17:42:12.951Z,19.73
2023-05-21T17:44:44.256Z,19.61
2023-05-21T17:47:13.271Z,19.53
2023-05-21T17:49:47.801Z,19.64
2023-05-21T17:52:18.379Z,19.50
2023-05-21T17:54:47.848Z,19.27
2023-05-21T17:57:19.872Z,19.32
2023-05-21T17:59:49.287Z,19.37
2023-05-21T18:02:18.546Z,19.34
2023-05-21T18:04:48.315Z,19.15
2023-05-21T18:07:19.193Z,19.22
2023-05-21T18:09:49.096Z,19.08
2023-05-21T18:12:18.561Z,19.09
2023-05-21T18:14:48.201Z,18.87
2023-05-21T18:17:23.669Z,18.24
2023-05-21T18:19:53.553Z,18.15
2023-05-21T18:22:25.029Z,18.70
2023-05-21T18:24:56.849Z,18.40
2023-05-21T18:27:28.719Z,18.88
2023-05-21T18:30:02.545Z,18.70
2023-05-21T18:32:40.480Z,17.77
2023-05-21T18:35:15.046Z,17.58
2023-05-21T18:37:55.638Z,18.20
2023-05-21T18:40:29.068Z,18.42
2023-05-21T18:43:08.836Z,18.48
2023-05-21T18:45:38.366Z,18.59
2023-05-21T18:48:08.398Z,18.39
2023-05-21T18:50:38.681Z,18.16
2023-05-21T18:53:09.596Z,18.42
2023-05-21T18:55:39.266Z,18.27
2023-05-21T18:58:08.488Z,18.27
2023-05-21T19:00:39.909Z,18.23
2023-05-21T19:03:10.333Z,18.14
2023-05-21T19:05:40.358Z,18.03
2023-05-21T19:08:21.570Z,18.03
2023-05-21T19:10:53.065Z,17.92
2023-05-21T19:13:29.971Z,17.80
2023-05-21T19:16:00.455Z,17.80
2023-05-21T19:18:32.503Z,17.70
2023-05-21T19:21:07.185Z,17.46
2023-05-21T19:23:52.626Z,17.69
2023-05-21T19:26:24.210Z,17.58
2023-05-21T19:29:07.402Z,17.52
2023-05-21T19:31:43.485Z,17.36
2023-05-21T19:34:30.401Z,16.92
2023-05-21T19:37:09.213Z,17.12
2023-05-21T19:39:42.776Z,17.24
2023-05-21T19:42:12.069Z,16.77
2023-05-21T19:44:43.201Z,16.98
2023-05-21T19:47:15.645Z,16.93
2023-05-21T19:49:53.621Z,17.10
2023-05-21T19:52:23.259Z,16.72
2023-05-21T19:54:56.584Z,16.86
2023-05-21T19:57:27.098Z,16.36
2023-05-21T19:59:56.380Z,16.58
2023-05-21T20:02:52.024Z,16.57
2023-05-21T20:05:23.759Z,16.65
2023-05-21T20:07:58.240Z,16.63
2023-05-21T20:10:29.979Z,16.57
2023-05-21T20:13:20.327Z,15.99
2023-05-21T20:15:52.574Z,16.15
2023-05-21T20:18:27.152Z,16.17
2023-05-21T20:20:59.543Z,15.78
2023-05-21T20:23:31.586Z,16.04
2023-05-21T20:26:02.518Z,16.42
2023-05-21T20:28:35.282Z,16.41
2023-05-21T20:31:04.670Z,16.31
2023-05-21T20:33:42.183Z,15.87
2023-05-21T20:36:16.822Z,16.06
2023-05-21T20:38:48.622Z,16.36
2023-05-21T20:41:20.226Z,15.70
2023-05-21T20:43:55.511Z,15.92
2023-05-21T20:46:31.038Z,16.06
2023-05-21T20:49:03.220Z,16.17
2023-05-21T20:51:35.363Z,16.12
2023-05-21T20:54:05.007Z,15.76
2023-05-21T20:56:41.997Z,16.17
2023-05-21T20:59:12.644Z,15.97
2023-05-21T21:01:42.678Z,16.00
2023-05-21T21:04:11.984Z,15.84
2023-05-21T21:06:41.377Z,15.87
2023-05-21T21:09:10.594Z,15.83
2023-05-21T21:11:42.932Z,15.78
2023-05-21T21:14:23.517Z,15.37
2023-05-21T21:16:58.411Z,15.12
2023-05-21T21:19:28.055Z,15.63
2023-05-21T21:21:57.752Z,15.66
2023-05-21T21:24:26.908Z,15.69
2023-05-21T21:26:57.481Z,15.51
2023-05-21T21:29:28.741Z,15.46
2023-05-21T21:32:00.945Z,15.59
2023-05-21T21:34:30.202Z,15.66
2023-05-21T21:36:59.993Z,15.60
2023-05-21T21:39:29.631Z,15.57
2023-05-21T21:42:00.682Z,15.41
2023-05-21T21:44:30.169Z,15.41
2023-05-21T21:46:59.672Z,15.46
2023-05-21T21:49:31.684Z,15.39
2023-05-21T21:52:01.563Z,15.27
2023-05-21T21:54:31.032Z,15.24
2023-05-21T21:57:04.325Z,15.09
2023-05-21T21:59:34.006Z,15.36
2023-05-21T22:02:03.376Z,15.29
2023-05-21T22:04:32.893Z,15.34
2023-05-21T22:07:04.788Z,15.27
2023-05-21T22:09:33.732Z,15.15
2023-05-21T22:12:07.771Z,15.14
2023-05-21T22:14:37.477Z,15.26
2023-05-21T22:17:08.429Z,15.19
2023-05-21T22:19:37.783Z,14.99
2023-05-21T22:22:07.096Z,14.99
2023-05-21T22:24:36.221Z,14.91
2023-05-21T22:27:07.224Z,14.90
2023-05-21T22:29:36.524Z,14.85
2023-05-21T22:32:06.289Z,14.98
2023-05-21T22:34:35.352Z,15.15
2023-05-21T22:37:05.114Z,15.19
2023-05-21T22:39:34.108Z,15.17
2023-05-21T22:42:04.121Z,15.13
2023-05-21T22:44:34.885Z,15.08
2023-05-21T22:47:04.670Z,14.79
2023-05-21T22:49:33.941Z,15.03
2023-05-21T22:52:05.614Z,15.06
2023-05-21T22:54:35.484Z,15.01
2023-05-21T22:57:05.249Z,14.96
2023-05-21T22:59:36.178Z,15.02
2023-05-21T23:02:06.151Z,15.04
2023-05-21T23:04:43.816Z,15.04
2023-05-21T23:07:16.129Z,14.81
2023-05-21T23:09:45.391Z,14.83
2023-05-21T23:12:14.821Z,14.84
2023-05-21T23:14:45.248Z,14.78
2023-05-21T23:17:14.550Z,14.84
2023-05-21T23:19:44.121Z,14.90
2023-05-21T23:22:13.237Z,14.80
2023-05-21T23:24:42.427Z,14.65
2023-05-21T23:27:13.945Z,14.47
2023-05-21T23:29:44.661Z,14.72
2023-05-21T23:32:14.038Z,14.66
2023-05-21T23:34:43.574Z,14.57
2023-05-21T23:37:12.950Z,14.63
2023-05-21T23:39:43.670Z,14.78
2023-05-21T23:42:13.034Z,14.77
2023-05-21T23:44:41.984Z,14.85
2023-05-21T23:47:12.819Z,14.68
2023-05-21T23:49:41.988Z,14.49
2023-05-21T23:52:13.153Z,14.30
2023-05-21T23:54:42.311Z,14.24
2023-05-21T23:57:11.878Z,14.25
2023-05-21T23:59:40.911Z,14.28
